TAF KBFI
KBFI 090520Z 0906/1006 19003KT P6SM BKN025 FM091200 20008KT P6SM BKN025 OVC030 FM091500 20006KT P6SM VCSH OVC020=
METAR KBFI
WC KBFI
WS KBFI
WV KBFI